createdAt,value
2018-07-12T00:00:35.597Z,13.73
2018-07-12T00:03:02.856Z,11.93
2018-07-12T00:05:30.126Z,12.07
2018-07-12T00:07:57.331Z,13.20
2018-07-12T00:10:24.615Z,14.47
2018-07-12T00:12:51.930Z,13.17
2018-07-12T00:15:19.463Z,13.40
2018-07-12T00:17:46.708Z,17.90
2018-07-12T00:20:13.948Z,13.13
2018-07-12T00:22:41.595Z,16.20
2018-07-12T00:25:08.979Z,14.00
2018-07-12T00:27:36.314Z,16.43
2018-07-12T00:30:03.533Z,14.70
2018-07-12T00:32:30.774Z,17.00
2018-07-12T00:34:58.038Z,20.60
2018-07-12T00:37:25.292Z,16.27
2018-07-12T00:39:52.824Z,16.80
2018-07-12T00:42:20.396Z,17.17
2018-07-12T00:44:47.647Z,17.83
2018-07-12T00:47:14.986Z,14.33
2018-07-12T00:49:42.218Z,15.10
2018-07-12T00:52:09.473Z,14.50
2018-07-12T00:54:36.740Z,16.83
2018-07-12T00:57:03.954Z,17.73
2018-07-12T00:59:31.252Z,15.97
2018-07-12T01:01:58.458Z,15.67
2018-07-12T01:04:25.680Z,17.07
2018-07-12T01:06:53.084Z,17.17
2018-07-12T01:09:20.306Z,18.30
2018-07-12T01:11:48.381Z,14.80
2018-07-12T01:14:15.667Z,16.93
2018-07-12T01:16:42.945Z,14.80
2018-07-12T01:19:10.205Z,16.20
2018-07-12T01:21:37.428Z,15.30
2018-07-12T01:24:04.955Z,15.73
2018-07-12T01:26:32.388Z,18.00
2018-07-12T01:28:59.652Z,15.87
2018-07-12T01:31:27.097Z,15.03
2018-07-12T01:33:54.654Z,15.57
2018-07-12T01:36:21.915Z,14.20
2018-07-12T01:38:49.176Z,12.67
2018-07-12T01:41:16.632Z,14.53
2018-07-12T01:43:43.883Z,13.37
2018-07-12T01:46:11.122Z,11.80
2018-07-12T01:48:38.672Z,10.63
2018-07-12T01:51:05.957Z,10.83
2018-07-12T01:53:33.211Z,10.43
2018-07-12T01:56:00.456Z,10.13
2018-07-12T01:58:27.710Z,10.67
2018-07-12T02:00:55.022Z,10.57
2018-07-12T02:03:22.260Z,8.97
2018-07-12T02:05:49.491Z,10.07
2018-07-12T02:08:16.724Z,10.47
2018-07-12T02:10:43.983Z,9.77
2018-07-12T02:13:11.271Z,11.00
2018-07-12T02:15:38.819Z,16.23
2018-07-12T02:18:06.075Z,11.57
2018-07-12T02:20:33.374Z,25.40
2018-07-12T02:23:00.617Z,11.27
2018-07-12T02:25:27.909Z,19.57
2018-07-12T02:27:55.172Z,13.80
2018-07-12T02:30:22.409Z,13.27
2018-07-12T02:32:49.680Z,13.43
2018-07-12T02:35:16.954Z,9.47
2018-07-12T02:37:44.213Z,12.33
2018-07-12T02:40:11.471Z,10.73
2018-07-12T02:42:38.720Z,11.20
2018-07-12T02:45:05.965Z,13.33
2018-07-12T02:47:33.213Z,11.17
2018-07-12T02:50:00.503Z,12.27
2018-07-12T02:52:27.739Z,12.40
2018-07-12T02:54:55.011Z,13.93
2018-07-12T02:57:22.276Z,13.83
2018-07-12T02:59:50.084Z,13.63
2018-07-12T03:02:17.382Z,14.80
2018-07-12T03:04:44.648Z,12.93
2018-07-12T03:07:11.897Z,14.90
2018-07-12T03:09:39.143Z,14.60
2018-07-12T03:12:06.361Z,17.23
2018-07-12T03:14:33.765Z,15.43
2018-07-12T03:17:01.039Z,14.53
2018-07-12T03:19:28.298Z,13.10
2018-07-12T03:21:55.546Z,13.47
2018-07-12T03:24:22.821Z,16.17
2018-07-12T03:26:50.093Z,17.03
2018-07-12T03:29:17.341Z,15.67
2018-07-12T03:31:44.548Z,13.37
2018-07-12T03:34:11.788Z,16.33
2018-07-12T03:36:39.075Z,12.40
2018-07-12T03:39:06.387Z,13.40
2018-07-12T03:41:33.589Z,15.33
2018-07-12T03:44:00.806Z,13.70
2018-07-12T03:46:28.051Z,13.70
2018-07-12T03:48:56.879Z,12.90
2018-07-12T03:51:24.142Z,12.77
2018-07-12T03:53:51.404Z,12.23
2018-07-12T03:56:18.707Z,13.57
2018-07-12T03:58:45.951Z,14.70
2018-07-12T04:01:13.193Z,15.50
2018-07-12T04:03:40.597Z,13.63
2018-07-12T04:06:07.777Z,14.23
2018-07-12T04:08:35.017Z,12.90
2018-07-12T04:11:02.307Z,12.80
2018-07-12T04:13:29.489Z,14.50
2018-07-12T04:15:56.812Z,14.07
2018-07-12T04:18:24.144Z,14.20
2018-07-12T04:20:51.390Z,13.23
2018-07-12T04:23:18.624Z,17.23
2018-07-12T04:25:45.861Z,16.30
2018-07-12T04:28:13.138Z,15.07
2018-07-12T04:30:40.407Z,14.33
2018-07-12T04:33:07.724Z,13.73
2018-07-12T04:35:34.978Z,14.17
2018-07-12T04:38:02.240Z,16.37
2018-07-12T04:40:29.565Z,13.57
2018-07-12T04:42:56.842Z,17.13
2018-07-12T04:45:24.095Z,15.53
2018-07-12T04:47:51.342Z,16.37
2018-07-12T04:50:18.614Z,16.23
2018-07-12T04:52:45.901Z,15.63
2018-07-12T04:55:13.560Z,15.07
2018-07-12T04:57:40.780Z,13.47
2018-07-12T05:00:08.879Z,14.63
2018-07-12T05:02:36.144Z,14.00
2018-07-12T05:05:03.422Z,16.80
2018-07-12T05:07:30.644Z,15.20
2018-07-12T05:09:57.896Z,15.90
2018-07-12T05:12:25.172Z,15.97
2018-07-12T05:14:52.412Z,15.10
2018-07-12T05:17:19.704Z,15.70
2018-07-12T05:19:47.003Z,16.87
2018-07-12T05:22:14.207Z,16.70
2018-07-12T05:24:41.453Z,17.10
2018-07-12T05:27:08.712Z,15.70
2018-07-12T05:29:36.028Z,16.80
2018-07-12T05:32:03.527Z,15.90
2018-07-12T05:34:30.747Z,15.47
2018-07-12T05:37:00.516Z,14.17
2018-07-12T05:39:28.898Z,18.90
2018-07-12T05:41:57.281Z,15.73
2018-07-12T05:44:25.567Z,15.13
2018-07-12T05:46:54.561Z,14.60
2018-07-12T05:49:22.861Z,14.47
2018-07-12T05:51:51.151Z,20.33
2018-07-12T05:54:20.085Z,14.90
2018-07-12T05:56:48.787Z,15.17
2018-07-12T05:59:17.553Z,13.30
2018-07-12T06:01:57.526Z,15.43
2018-07-12T06:04:25.825Z,14.40
2018-07-12T06:06:54.147Z,14.53
2018-07-12T06:09:22.419Z,15.00
2018-07-12T06:11:50.860Z,13.93
2018-07-12T06:14:19.239Z,15.67
2018-07-12T06:16:47.545Z,14.43
2018-07-12T06:19:15.831Z,12.77
2018-07-12T06:21:44.096Z,12.57
2018-07-12T06:24:12.404Z,11.27
2018-07-12T06:26:40.870Z,12.60
2018-07-12T06:29:09.202Z,11.90
2018-07-12T06:31:37.488Z,10.80
2018-07-12T06:34:05.739Z,11.30
2018-07-12T06:36:34.016Z,11.90
2018-07-12T06:39:02.298Z,11.90
2018-07-12T06:41:30.581Z,12.20
2018-07-12T06:43:58.844Z,11.40
2018-07-12T06:46:27.153Z,10.40
2018-07-12T06:48:55.454Z,9.93
2018-07-12T06:51:23.785Z,8.17
2018-07-12T06:53:52.082Z,8.70
2018-07-12T06:56:20.384Z,8.97
2018-07-12T06:58:49.156Z,9.00
2018-07-12T07:01:17.466Z,7.47
2018-07-12T07:03:45.564Z,6.80
2018-07-12T07:06:13.958Z,6.27
2018-07-12T07:08:42.278Z,7.17
2018-07-12T07:11:10.604Z,7.47
2018-07-12T07:13:39.108Z,7.20
2018-07-12T07:16:08.297Z,6.23
2018-07-12T07:18:36.609Z,6.07
2018-07-12T07:21:04.864Z,6.30
2018-07-12T07:23:33.128Z,8.00
2018-07-12T07:26:01.434Z,7.10
2018-07-12T07:28:29.715Z,7.10
2018-07-12T07:30:58.205Z,6.27
2018-07-12T07:33:26.473Z,8.27
2018-07-12T07:35:54.762Z,7.10
2018-07-12T07:38:22.980Z,6.50
2018-07-12T07:40:51.281Z,8.80
2018-07-12T07:43:19.395Z,6.70
2018-07-12T07:45:48.004Z,5.50
2018-07-12T07:48:16.222Z,4.93
2018-07-12T07:50:44.584Z,5.27
2018-07-12T07:53:12.845Z,5.60
2018-07-12T07:55:41.133Z,4.80
2018-07-12T07:58:09.442Z,4.33
2018-07-12T08:00:37.716Z,5.00
2018-07-12T08:03:06.025Z,4.70
2018-07-12T08:05:34.309Z,4.90
2018-07-12T08:08:02.678Z,4.00
2018-07-12T08:10:31.752Z,4.10
2018-07-12T08:12:59.991Z,5.10
2018-07-12T08:15:28.213Z,5.07
2018-07-12T08:17:56.508Z,3.80
2018-07-12T08:20:24.733Z,3.37
2018-07-12T08:22:52.993Z,3.73
2018-07-12T08:25:21.295Z,4.60
2018-07-12T08:28:01.074Z,3.93
2018-07-12T08:30:29.447Z,5.30
2018-07-12T08:32:57.749Z,3.60
2018-07-12T08:35:26.056Z,3.50
2018-07-12T08:37:54.284Z,4.20
2018-07-12T08:40:22.572Z,3.93
2018-07-12T08:42:50.867Z,4.23
2018-07-12T08:45:19.133Z,4.57
2018-07-12T08:47:47.475Z,4.10
2018-07-12T08:50:16.147Z,4.40
2018-07-12T08:52:44.458Z,3.70
2018-07-12T08:55:12.745Z,4.27
2018-07-12T08:57:41.022Z,3.50
2018-07-12T09:00:09.291Z,4.07
2018-07-12T09:02:37.519Z,3.80
2018-07-12T09:05:05.820Z,4.43
2018-07-12T09:07:33.882Z,4.87
2018-07-12T09:10:02.124Z,3.63
2018-07-12T09:12:30.407Z,3.80
2018-07-12T09:14:58.723Z,5.47
2018-07-12T09:17:27.015Z,4.40
2018-07-12T09:19:55.087Z,3.57
2018-07-12T09:22:23.071Z,3.37
2018-07-12T09:24:52.622Z,3.97
2018-07-12T09:27:21.100Z,3.50
2018-07-12T09:29:49.356Z,4.40
2018-07-12T09:32:17.767Z,3.87
2018-07-12T09:34:46.062Z,4.27
2018-07-12T09:37:14.388Z,5.17
2018-07-12T09:39:42.687Z,3.47
2018-07-12T09:42:10.956Z,4.30
2018-07-12T09:44:39.336Z,4.27
2018-07-12T09:47:07.689Z,3.70
2018-07-12T09:49:36.157Z,3.80
2018-07-12T09:52:08.683Z,4.17
2018-07-12T09:54:36.990Z,4.33
2018-07-12T09:57:16.694Z,4.13
2018-07-12T09:59:45.648Z,4.30
2018-07-12T10:02:19.470Z,4.00
2018-07-12T10:04:47.728Z,3.37
2018-07-12T10:07:21.632Z,4.90
2018-07-12T10:09:57.052Z,3.97
2018-07-12T10:12:30.842Z,4.97
2018-07-12T10:15:04.648Z,6.30
2018-07-12T10:17:38.563Z,3.93
2018-07-12T10:20:06.950Z,4.73
2018-07-12T10:22:35.898Z,11.30
2018-07-12T10:25:04.228Z,5.93
2018-07-12T10:27:33.270Z,3.73
2018-07-12T10:30:01.603Z,3.80
2018-07-12T10:32:29.791Z,5.27
2018-07-12T10:34:58.052Z,3.43
2018-07-12T10:37:26.316Z,3.90
2018-07-12T10:39:54.583Z,6.73
2018-07-12T10:42:22.862Z,6.50
2018-07-12T10:44:51.131Z,3.77
2018-07-12T10:47:19.504Z,3.20
2018-07-12T10:49:47.779Z,2.77
2018-07-12T10:52:16.026Z,4.90
2018-07-12T10:54:44.054Z,4.90
2018-07-12T10:57:12.306Z,3.00
2018-07-12T10:59:40.614Z,3.63
2018-07-12T11:02:09.188Z,3.97
2018-07-12T11:04:37.488Z,3.70
2018-07-12T11:07:05.742Z,3.30
2018-07-12T11:09:33.981Z,3.10
2018-07-12T11:12:02.249Z,3.47
2018-07-12T11:14:30.548Z,3.10
2018-07-12T11:16:58.785Z,3.43
2018-07-12T11:19:27.736Z,3.83
2018-07-12T11:21:56.024Z,4.30
2018-07-12T11:24:24.045Z,3.60
2018-07-12T11:26:52.405Z,4.97
2018-07-12T11:29:30.789Z,3.00
2018-07-12T11:31:59.006Z,3.63
2018-07-12T11:34:27.367Z,3.40
2018-07-12T11:36:55.705Z,3.50
2018-07-12T11:39:23.977Z,2.93
2018-07-12T11:41:52.383Z,3.97
2018-07-12T11:44:20.995Z,3.80
2018-07-12T11:46:49.211Z,3.50
2018-07-12T11:49:17.436Z,3.33
2018-07-12T11:51:45.723Z,3.10
2018-07-12T11:54:14.020Z,3.60
2018-07-12T11:56:43.293Z,2.97
2018-07-12T11:59:11.550Z,3.43
2018-07-12T12:01:39.839Z,3.53
2018-07-12T12:04:08.129Z,3.97
2018-07-12T12:06:36.383Z,3.67
2018-07-12T12:09:05.752Z,4.53
2018-07-12T12:11:34.018Z,7.43
2018-07-12T12:14:02.282Z,3.80
2018-07-12T12:16:30.552Z,3.37
2018-07-12T12:18:58.894Z,3.40
2018-07-12T12:21:27.136Z,3.40
2018-07-12T12:23:55.191Z,3.13
2018-07-12T12:26:23.488Z,3.37
2018-07-12T12:28:54.235Z,3.20
2018-07-12T12:31:22.337Z,2.97
2018-07-12T12:33:50.575Z,3.00
2018-07-12T12:36:18.813Z,2.83
2018-07-12T12:38:47.121Z,2.80
2018-07-12T12:41:15.375Z,5.00
2018-07-12T12:43:44.008Z,2.47
2018-07-12T12:46:12.235Z,2.53
2018-07-12T12:48:40.473Z,2.77
2018-07-12T12:51:08.488Z,3.20
2018-07-12T12:53:36.765Z,3.00
2018-07-12T12:56:05.196Z,3.20
2018-07-12T12:58:33.459Z,2.70
2018-07-12T13:01:01.734Z,2.90
2018-07-12T13:03:30.060Z,2.73
2018-07-12T13:05:58.352Z,2.60
2018-07-12T13:08:26.362Z,2.87
2018-07-12T13:10:55.452Z,2.60
2018-07-12T13:13:24.181Z,3.53
2018-07-12T13:15:52.522Z,2.60
2018-07-12T13:18:20.762Z,2.90
2018-07-12T13:20:49.087Z,3.30
2018-07-12T13:23:17.392Z,3.67
2018-07-12T13:25:45.715Z,3.03
2018-07-12T13:28:13.956Z,3.40
2018-07-12T13:30:42.207Z,2.30
2018-07-12T13:33:10.592Z,2.90
2018-07-12T13:35:38.814Z,2.80
2018-07-12T13:38:07.044Z,3.00
2018-07-12T13:40:35.355Z,3.00
2018-07-12T13:43:03.687Z,2.87
2018-07-12T13:45:32.203Z,3.20
2018-07-12T13:48:00.512Z,3.90
2018-07-12T13:50:28.757Z,3.03
2018-07-12T13:52:57.033Z,3.70
2018-07-12T13:55:25.299Z,3.50
2018-07-12T13:57:53.558Z,3.03
2018-07-12T14:00:21.817Z,3.13
2018-07-12T14:02:51.059Z,5.50
2018-07-12T14:05:19.308Z,3.50
2018-07-12T14:07:47.619Z,4.17
2018-07-12T14:10:15.971Z,3.67
2018-07-12T14:12:44.244Z,3.00
2018-07-12T14:15:12.522Z,3.60
2018-07-12T14:17:41.575Z,3.70
2018-07-12T14:20:09.840Z,3.83
2018-07-12T14:22:38.152Z,3.70
2018-07-12T14:25:06.418Z,3.10
2018-07-12T14:27:34.776Z,3.40
2018-07-12T14:30:03.203Z,3.10
2018-07-12T14:32:31.422Z,4.13
2018-07-12T14:34:59.775Z,5.63
2018-07-12T14:37:28.054Z,3.13
2018-07-12T14:39:56.283Z,3.10
2018-07-12T14:42:24.678Z,3.60
2018-07-12T14:44:52.990Z,3.27
2018-07-12T14:47:21.232Z,3.43
2018-07-12T14:49:49.509Z,4.27
2018-07-12T14:52:17.851Z,3.13
2018-07-12T14:54:47.488Z,3.37
2018-07-12T14:57:15.753Z,4.50
2018-07-12T14:59:44.397Z,3.67
2018-07-12T15:02:12.733Z,4.20
2018-07-12T15:04:41.065Z,3.90
2018-07-12T15:07:09.347Z,3.50
2018-07-12T15:09:37.681Z,3.73
2018-07-12T15:12:05.967Z,3.27
2018-07-12T15:14:34.302Z,3.63
2018-07-12T15:17:02.617Z,3.17
2018-07-12T15:19:30.945Z,5.00
2018-07-12T15:21:59.248Z,4.17
2018-07-12T15:24:27.601Z,4.33
2018-07-12T15:26:56.192Z,3.03
2018-07-12T15:29:24.540Z,3.77
2018-07-12T15:31:52.778Z,3.47
2018-07-12T15:34:21.216Z,3.70
2018-07-12T15:36:49.589Z,3.57
2018-07-12T15:39:17.889Z,3.50
2018-07-12T15:41:46.193Z,3.27
2018-07-12T15:44:14.492Z,3.60
2018-07-12T15:46:42.755Z,3.77
2018-07-12T15:49:11.108Z,3.40
2018-07-12T15:51:39.443Z,3.53
2018-07-12T15:54:07.811Z,3.87
2018-07-12T15:56:36.318Z,3.37
2018-07-12T15:59:04.681Z,3.63
2018-07-12T16:01:33.022Z,3.63
2018-07-12T16:04:01.328Z,4.00
2018-07-12T16:06:29.594Z,3.50
2018-07-12T16:08:58.220Z,3.50
2018-07-12T16:11:26.506Z,4.70
2018-07-12T16:13:54.821Z,3.37
2018-07-12T16:16:23.138Z,3.67
2018-07-12T16:18:51.384Z,3.87
2018-07-12T16:21:19.699Z,4.23
2018-07-12T16:23:48.030Z,3.27
2018-07-12T16:26:16.337Z,4.87
2018-07-12T16:28:44.712Z,4.57
2018-07-12T16:31:12.972Z,4.07
2018-07-12T16:33:41.312Z,4.80
2018-07-12T16:36:10.240Z,5.00
2018-07-12T16:38:38.576Z,5.17
2018-07-12T16:41:06.663Z,3.97
2018-07-12T16:43:34.983Z,11.87
2018-07-12T16:46:03.214Z,10.90
2018-07-12T16:48:31.552Z,6.27
2018-07-12T16:50:59.899Z,4.70
2018-07-12T16:53:29.380Z,5.43
2018-07-12T16:55:57.684Z,6.07
2018-07-12T16:58:26.837Z,4.80
2018-07-12T17:00:55.126Z,5.87
2018-07-12T17:03:23.452Z,5.33
2018-07-12T17:05:51.765Z,4.90
2018-07-12T17:08:20.133Z,4.37
2018-07-12T17:10:48.477Z,4.70
2018-07-12T17:13:16.695Z,5.47
2018-07-12T17:15:45.024Z,6.10
2018-07-12T17:18:13.297Z,5.57
2018-07-12T17:20:41.635Z,15.67
2018-07-12T17:23:10.060Z,7.00
2018-07-12T17:25:38.515Z,5.60
2018-07-12T17:28:06.948Z,8.40
2018-07-12T17:30:35.601Z,6.80
2018-07-12T17:33:03.945Z,7.20
2018-07-12T17:35:32.251Z,6.40
2018-07-12T17:38:00.535Z,7.00
2018-07-12T17:40:29.064Z,5.47
2018-07-12T17:42:57.351Z,6.63
2018-07-12T17:45:25.357Z,6.10
2018-07-12T17:47:53.616Z,7.60
2018-07-12T17:50:21.672Z,5.63
2018-07-12T17:52:50.025Z,5.83
2018-07-12T17:55:18.727Z,5.60
2018-07-12T17:57:47.020Z,6.20
2018-07-12T18:00:15.271Z,6.73
2018-07-12T18:02:43.484Z,7.40
2018-07-12T18:05:11.862Z,6.43
2018-07-12T18:07:40.033Z,6.70
2018-07-12T18:10:08.315Z,5.70
2018-07-12T18:12:36.600Z,6.27
2018-07-12T18:15:04.895Z,7.57
2018-07-12T18:17:33.367Z,10.63
2018-07-12T18:20:01.675Z,7.00
2018-07-12T18:22:29.937Z,8.80
2018-07-12T18:24:58.154Z,7.23
2018-07-12T18:27:26.431Z,8.43
2018-07-12T18:29:54.745Z,6.40
2018-07-12T18:32:23.027Z,7.40
2018-07-12T18:34:51.320Z,7.47
2018-07-12T18:37:20.328Z,7.60
2018-07-12T18:39:48.584Z,10.63
2018-07-12T18:42:16.836Z,7.00
2018-07-12T18:44:45.072Z,8.40
2018-07-12T18:47:13.359Z,10.33
2018-07-12T18:49:41.677Z,8.80
2018-07-12T18:52:09.979Z,8.87
2018-07-12T18:54:38.649Z,8.30
2018-07-12T18:57:07.042Z,9.43
2018-07-12T18:59:35.340Z,8.80
2018-07-12T19:02:03.662Z,8.07
2018-07-12T19:04:31.903Z,10.60
2018-07-12T19:07:00.180Z,9.33
2018-07-12T19:09:28.489Z,8.20
2018-07-12T19:11:56.779Z,9.67
2018-07-12T19:14:25.411Z,10.60
2018-07-12T19:16:53.644Z,7.67
2018-07-12T19:19:21.923Z,7.80
2018-07-12T19:21:50.163Z,8.70
2018-07-12T19:24:18.486Z,8.87
2018-07-12T19:26:46.708Z,7.47
2018-07-12T19:29:14.998Z,8.00
2018-07-12T19:31:43.306Z,7.47
2018-07-12T19:34:11.539Z,8.20
2018-07-12T19:36:39.792Z,6.83
2018-07-12T19:39:08.315Z,7.63
2018-07-12T19:41:36.745Z,7.10
2018-07-12T19:44:05.025Z,8.53
2018-07-12T19:46:33.307Z,7.37
2018-07-12T19:49:01.521Z,7.60
2018-07-12T19:51:29.790Z,8.20
2018-07-12T19:53:57.992Z,11.50
2018-07-12T19:56:26.394Z,9.10
2018-07-12T19:58:54.682Z,8.87
2018-07-12T20:01:23.008Z,10.03
2018-07-12T20:03:51.329Z,7.90
2018-07-12T20:06:19.526Z,10.43
2018-07-12T20:08:47.853Z,10.20
2018-07-12T20:11:16.132Z,10.50
2018-07-12T20:13:44.403Z,13.30
2018-07-12T20:16:13.066Z,9.60
2018-07-12T20:18:41.337Z,9.53
2018-07-12T20:21:09.659Z,9.50
2018-07-12T20:23:38.560Z,10.80
2018-07-12T20:26:07.151Z,10.10
2018-07-12T20:28:35.411Z,10.43
2018-07-12T20:31:03.768Z,10.00
2018-07-12T20:33:32.045Z,10.33
2018-07-12T20:36:00.277Z,9.57
2018-07-12T20:38:28.529Z,12.20
2018-07-12T20:40:56.880Z,12.30
2018-07-12T20:43:25.115Z,12.83
2018-07-12T20:45:53.441Z,10.60
2018-07-12T20:48:21.787Z,14.17
2018-07-12T20:50:50.031Z,18.33
2018-07-12T20:53:18.303Z,10.67
2018-07-12T20:55:46.564Z,10.67
2018-07-12T20:58:14.903Z,14.77
2018-07-12T21:00:43.187Z,11.03
2018-07-12T21:03:11.483Z,14.43
2018-07-12T21:05:39.743Z,10.73
2018-07-12T21:08:08.014Z,11.63
2018-07-12T21:10:36.344Z,13.57
2018-07-12T21:13:04.636Z,15.23
2018-07-12T21:15:33.472Z,14.10
2018-07-12T21:18:01.679Z,14.17
2018-07-12T21:20:29.998Z,12.20
2018-07-12T21:22:58.408Z,11.53
2018-07-12T21:25:26.619Z,13.07
2018-07-12T21:27:54.921Z,16.03
2018-07-12T21:30:23.256Z,17.43
2018-07-12T21:32:51.529Z,13.80
2018-07-12T21:35:19.863Z,20.33
2018-07-12T21:37:48.107Z,16.50
2018-07-12T21:40:16.386Z,15.33
2018-07-12T21:42:44.753Z,16.80
2018-07-12T21:45:13.092Z,15.83
2018-07-12T21:47:41.706Z,18.80
2018-07-12T21:50:09.930Z,16.60
2018-07-12T21:52:38.204Z,25.37
2018-07-12T21:55:06.631Z,22.60
2018-07-12T21:57:34.931Z,21.63
2018-07-12T22:00:03.313Z,21.53
2018-07-12T22:02:31.588Z,18.90
2018-07-12T22:04:59.858Z,12.60
2018-07-12T22:07:44.113Z,18.87
2018-07-12T22:10:12.631Z,14.47
2018-07-12T22:12:40.928Z,13.87
2018-07-12T22:15:09.257Z,14.20
2018-07-12T22:17:37.600Z,15.53
2018-07-12T22:20:05.934Z,16.17
2018-07-12T22:22:34.278Z,16.57
2018-07-12T22:25:02.579Z,13.23
2018-07-12T22:27:30.901Z,13.37
2018-07-12T22:30:00.193Z,18.73
2018-07-12T22:32:28.433Z,18.20
2018-07-12T22:34:56.839Z,14.60
2018-07-12T22:37:25.080Z,16.17
2018-07-12T22:39:53.339Z,16.60
2018-07-12T22:42:21.633Z,16.30
2018-07-12T22:44:49.898Z,14.20
2018-07-12T22:47:18.219Z,13.70
2018-07-12T22:49:46.496Z,17.90
2018-07-12T22:52:14.623Z,13.23
2018-07-12T22:54:42.908Z,13.83
2018-07-12T22:57:11.159Z,16.53
2018-07-12T22:59:39.504Z,13.83
2018-07-12T23:02:07.805Z,14.30
2018-07-12T23:04:36.093Z,12.60
2018-07-12T23:07:05.357Z,14.03
2018-07-12T23:09:33.772Z,14.90
2018-07-12T23:12:02.159Z,16.23
2018-07-12T23:14:30.501Z,13.70
2018-07-12T23:17:00.229Z,13.20
2018-07-12T23:19:28.576Z,14.67
2018-07-12T23:21:56.829Z,14.00
2018-07-12T23:24:25.357Z,16.30
2018-07-12T23:26:53.666Z,15.50
2018-07-12T23:29:22.017Z,13.90
2018-07-12T23:31:50.289Z,14.07
2018-07-12T23:34:18.537Z,13.53
2018-07-12T23:36:46.880Z,14.30
2018-07-12T23:39:15.719Z,13.10
2018-07-12T23:41:44.096Z,15.57
2018-07-12T23:44:12.570Z,13.60
2018-07-12T23:46:40.811Z,15.43
2018-07-12T23:49:09.162Z,15.27
2018-07-12T23:51:37.447Z,14.70
2018-07-12T23:54:06.042Z,13.57
2018-07-12T23:56:34.373Z,18.77
2018-07-12T23:59:02.995Z,14.13
